EGNS

Isle of Man Airport

Castletown, Isle of Man
TAF EGNS 201700Z 2018/2021 20008KT 9999 FEW025
Issued Valid From Valid To
Apr-20 @ 17:00 UTC
(2 hours ago)
Apr-20 @ 18:00 UTC
(40 minutes ago)
Apr-20 @ 21:00 UTC
(in 2 hours)
Apr-20 @ 18:00 to Apr-20 @ 21:00
TAF EGNS 201700Z 2018/2021 20008KT 9999 FEW025
Wind Visibility Clouds
200° at 8 knots 10,000+ meters
  • Few at 2,500' AGL
TAF EGNS 201700Z 2018/2021 20008KT 9999 FEW025
Issued Apr-20 @ 17:00 UTC
(2 hours ago)
Valid From Apr-20 @ 18:00 UTC
(40 minutes ago)
Valid To Apr-20 @ 21:00 UTC
(in 2 hours)
Apr-20 @ 18:00 - Apr-20 @ 21:00
Wind Visibility
200° at 8 knots 10,000+ meters
Clouds
  • Few at 2,500' AGL